createdAt,value
2023-03-13T00:01:19.775Z,21.40
2023-03-13T00:03:47.591Z,20.47
2023-03-13T00:06:15.295Z,17.73
2023-03-13T00:08:42.802Z,18.63
2023-03-13T00:11:11.898Z,15.93
2023-03-13T00:13:39.134Z,21.47
2023-03-13T00:16:11.774Z,19.23
2023-03-13T00:18:38.806Z,17.73
2023-03-13T00:21:08.017Z,20.33
2023-03-13T00:23:37.457Z,16.47
2023-03-13T00:26:10.594Z,22.73
2023-03-13T00:28:39.659Z,16.63
2023-03-13T00:31:10.760Z,19.60
2023-03-13T00:33:39.871Z,15.53
2023-03-13T00:36:15.652Z,22.17
2023-03-13T00:38:43.534Z,12.27
2023-03-13T00:41:15.983Z,18.50
2023-03-13T00:43:44.523Z,15.67
2023-03-13T00:46:12.830Z,17.90
2023-03-13T00:48:40.156Z,19.27
2023-03-13T00:51:08.050Z,21.23
2023-03-13T00:53:35.508Z,18.67
2023-03-13T00:56:06.162Z,12.50
2023-03-13T00:58:35.977Z,20.47
2023-03-13T01:01:20.640Z,16.40
2023-03-13T01:03:50.839Z,16.63
2023-03-13T01:06:21.267Z,17.77
2023-03-13T01:08:48.813Z,18.73
2023-03-13T01:11:18.860Z,17.63
2023-03-13T01:13:46.978Z,13.93
2023-03-13T01:16:18.545Z,17.23
2023-03-13T01:18:49.124Z,19.63
2023-03-13T01:21:19.786Z,18.30
2023-03-13T01:23:47.732Z,20.17
2023-03-13T01:26:15.235Z,15.17
2023-03-13T01:28:42.067Z,16.53
2023-03-13T01:31:18.899Z,15.40
2023-03-13T01:33:47.792Z,20.87
2023-03-13T01:36:15.551Z,14.33
2023-03-13T01:38:42.982Z,19.13
2023-03-13T01:41:12.514Z,16.50
2023-03-13T01:43:39.531Z,13.67
2023-03-13T01:46:19.373Z,19.83
2023-03-13T01:48:52.370Z,20.80
2023-03-13T01:51:22.263Z,16.37
2023-03-13T01:53:55.008Z,23.60
2023-03-13T01:56:27.860Z,22.83
2023-03-13T01:58:57.655Z,15.47
2023-03-13T02:01:24.898Z,15.77
2023-03-13T02:03:52.738Z,17.67
2023-03-13T02:06:19.808Z,16.23
2023-03-13T02:08:53.970Z,19.03
2023-03-13T02:11:33.992Z,18.03
2023-03-13T02:14:03.679Z,22.77
2023-03-13T02:16:32.357Z,16.47
2023-03-13T02:18:59.177Z,13.70
2023-03-13T02:21:50.265Z,19.63
2023-03-13T02:24:33.960Z,16.93
2023-03-13T02:27:01.287Z,17.77
2023-03-13T02:29:28.208Z,17.83
2023-03-13T02:31:55.234Z,18.97
2023-03-13T02:34:27.996Z,19.97
2023-03-13T02:36:54.942Z,15.90
2023-03-13T02:39:24.661Z,20.90
2023-03-13T02:41:52.814Z,18.63
2023-03-13T02:44:20.001Z,15.10
2023-03-13T02:46:50.332Z,18.40
2023-03-13T02:49:20.369Z,14.20
2023-03-13T02:51:47.800Z,15.57
2023-03-13T02:54:18.507Z,14.03
2023-03-13T02:56:49.265Z,19.27
2023-03-13T02:59:16.214Z,16.90
2023-03-13T03:01:43.259Z,19.83
2023-03-13T03:04:10.256Z,20.17
2023-03-13T03:06:37.428Z,23.03
2023-03-13T03:09:05.019Z,14.67
2023-03-13T03:11:31.930Z,17.83
2023-03-13T03:13:58.691Z,17.80
2023-03-13T03:16:25.482Z,14.87
2023-03-13T03:18:52.402Z,16.13
2023-03-13T03:21:19.167Z,22.53
2023-03-13T03:23:45.939Z,21.03
2023-03-13T03:26:13.157Z,18.77
2023-03-13T03:28:40.287Z,16.63
2023-03-13T03:31:09.399Z,20.83
2023-03-13T03:33:36.937Z,15.73
2023-03-13T03:36:07.325Z,24.67
2023-03-13T03:38:34.707Z,18.00
2023-03-13T03:41:01.693Z,28.27
2023-03-13T03:43:28.505Z,20.70
2023-03-13T03:45:55.570Z,23.40
2023-03-13T03:48:22.797Z,20.07
2023-03-13T03:50:49.956Z,16.77
2023-03-13T03:53:17.890Z,20.77
2023-03-13T03:55:45.179Z,19.80
2023-03-13T03:58:12.008Z,18.20
2023-03-13T04:00:38.972Z,21.47
2023-03-13T04:03:06.002Z,17.67
2023-03-13T04:05:32.788Z,17.53
2023-03-13T04:07:59.539Z,23.70
2023-03-13T04:10:26.501Z,18.97
2023-03-13T04:12:53.242Z,14.23
2023-03-13T04:15:19.991Z,22.23
2023-03-13T04:17:46.904Z,21.50
2023-03-13T04:20:14.686Z,14.83
2023-03-13T04:22:42.307Z,21.57
2023-03-13T04:25:10.376Z,19.33
2023-03-13T04:27:37.666Z,15.77
2023-03-13T04:30:05.145Z,19.83
2023-03-13T04:32:32.400Z,13.03
2023-03-13T04:34:59.213Z,16.40
2023-03-13T04:37:26.187Z,17.00
2023-03-13T04:39:53.247Z,11.63
2023-03-13T04:42:20.078Z,13.33
2023-03-13T04:44:46.827Z,12.80
2023-03-13T04:47:14.335Z,15.20
2023-03-13T04:49:41.106Z,14.90
2023-03-13T04:52:08.278Z,8.37
2023-03-13T04:54:35.252Z,9.27
2023-03-13T04:57:02.064Z,8.53
2023-03-13T04:59:28.844Z,9.87
2023-03-13T05:01:55.783Z,6.47
2023-03-13T05:04:22.577Z,6.63
2023-03-13T05:06:49.617Z,11.23
2023-03-13T05:09:16.546Z,4.77
2023-03-13T05:11:43.385Z,5.97
2023-03-13T05:14:11.487Z,5.27
2023-03-13T05:16:39.046Z,6.33
2023-03-13T05:19:05.940Z,6.07
2023-03-13T05:21:32.663Z,5.87
2023-03-13T05:23:59.622Z,6.77
2023-03-13T05:26:26.474Z,5.10
2023-03-13T05:28:53.216Z,5.07
2023-03-13T05:31:20.242Z,3.83
2023-03-13T05:33:47.074Z,6.10
2023-03-13T05:36:13.844Z,4.20
2023-03-13T05:38:40.820Z,9.27
2023-03-13T05:41:07.677Z,4.10
2023-03-13T05:43:34.483Z,6.47
2023-03-13T05:46:01.533Z,7.43
2023-03-13T05:48:28.397Z,8.07
2023-03-13T05:50:55.260Z,5.27
2023-03-13T05:53:22.237Z,4.40
2023-03-13T05:55:49.011Z,7.40
2023-03-13T05:58:15.835Z,5.30
2023-03-13T06:00:43.978Z,6.00
2023-03-13T06:03:13.040Z,5.53
2023-03-13T06:05:40.933Z,6.80
2023-03-13T06:08:07.862Z,5.57
2023-03-13T06:10:34.615Z,6.67
2023-03-13T06:13:13.769Z,5.87
2023-03-13T06:15:55.651Z,4.47
2023-03-13T06:18:23.210Z,4.10
2023-03-13T06:20:50.734Z,3.97
2023-03-13T06:23:17.764Z,7.47
2023-03-13T06:25:48.481Z,4.80
2023-03-13T06:28:15.874Z,4.73
2023-03-13T06:30:42.964Z,5.40
2023-03-13T06:33:09.831Z,4.03
2023-03-13T06:35:54.746Z,4.43
2023-03-13T06:38:23.081Z,6.17
2023-03-13T06:40:49.888Z,4.70
2023-03-13T06:43:16.997Z,4.87
2023-03-13T06:45:43.838Z,5.23
2023-03-13T06:48:10.791Z,4.50
2023-03-13T06:50:41.399Z,5.30
2023-03-13T06:53:14.307Z,5.10
2023-03-13T06:55:41.266Z,5.97
2023-03-13T06:58:08.774Z,6.07
2023-03-13T07:00:40.928Z,6.33
2023-03-13T07:03:08.109Z,6.97
2023-03-13T07:05:34.854Z,6.30
2023-03-13T07:08:01.837Z,5.40
2023-03-13T07:10:29.154Z,5.97
2023-03-13T07:12:56.211Z,5.93
2023-03-13T07:15:23.259Z,6.13
2023-03-13T07:17:50.401Z,9.03
2023-03-13T07:20:17.942Z,6.37
2023-03-13T07:22:45.017Z,5.87
2023-03-13T07:25:11.783Z,4.97
2023-03-13T07:27:38.586Z,8.10
2023-03-13T07:30:06.266Z,7.20
2023-03-13T07:32:34.431Z,6.67
2023-03-13T07:35:03.329Z,6.30
2023-03-13T07:37:30.608Z,5.87
2023-03-13T07:39:57.343Z,6.43
2023-03-13T07:42:24.157Z,6.37
2023-03-13T07:44:51.177Z,6.20
2023-03-13T07:47:18.286Z,8.37
2023-03-13T07:49:47.013Z,5.10
2023-03-13T07:52:14.095Z,8.63
2023-03-13T07:54:40.827Z,6.57
2023-03-13T07:57:07.637Z,5.93
2023-03-13T07:59:34.600Z,9.67
2023-03-13T08:02:02.289Z,5.30
2023-03-13T08:04:29.145Z,5.07
2023-03-13T08:06:57.000Z,5.70
2023-03-13T08:09:24.592Z,6.30
2023-03-13T08:11:51.432Z,5.73
2023-03-13T08:14:18.403Z,5.60
2023-03-13T08:16:45.237Z,4.67
2023-03-13T08:19:12.075Z,5.33
2023-03-13T08:21:39.669Z,2.93
2023-03-13T08:24:09.590Z,5.43
2023-03-13T08:26:38.985Z,4.33
2023-03-13T08:29:09.139Z,3.67
2023-03-13T08:31:50.323Z,4.43
2023-03-13T08:34:21.133Z,4.37
2023-03-13T08:36:48.263Z,4.73
2023-03-13T08:39:17.952Z,4.07
2023-03-13T08:41:45.356Z,5.80
2023-03-13T08:44:15.061Z,6.70
2023-03-13T08:46:44.133Z,3.27
2023-03-13T08:49:12.428Z,3.77
2023-03-13T08:51:40.853Z,3.20
2023-03-13T08:54:07.702Z,3.93
2023-03-13T08:56:35.466Z,4.10
2023-03-13T08:59:04.610Z,3.13
2023-03-13T09:01:34.415Z,4.97
2023-03-13T09:04:04.405Z,3.70
2023-03-13T09:06:33.915Z,3.00
2023-03-13T09:09:01.645Z,5.43
2023-03-13T09:11:28.673Z,2.60
2023-03-13T09:13:59.420Z,3.83
2023-03-13T09:16:31.040Z,4.03
2023-03-13T09:18:58.850Z,4.17
2023-03-13T09:21:31.477Z,5.17
2023-03-13T09:23:59.292Z,7.50
2023-03-13T09:26:26.741Z,5.83
2023-03-13T09:28:54.398Z,3.90
2023-03-13T09:31:27.273Z,8.47
2023-03-13T09:33:55.312Z,4.20
2023-03-13T09:36:24.297Z,3.37
2023-03-13T09:38:52.668Z,4.53
2023-03-13T09:41:35.090Z,4.23
2023-03-13T09:44:11.510Z,3.10
2023-03-13T09:47:31.033Z,7.23
2023-03-13T09:50:05.063Z,5.23
2023-03-13T09:52:37.024Z,5.10
2023-03-13T09:55:10.752Z,5.40
2023-03-13T09:58:01.282Z,3.87
2023-03-13T10:00:38.390Z,4.60
2023-03-13T10:03:14.868Z,5.50
2023-03-13T10:06:00.178Z,4.57
2023-03-13T10:08:36.325Z,4.73
2023-03-13T10:11:25.573Z,5.90
2023-03-13T10:13:58.533Z,4.73
2023-03-13T10:16:31.073Z,4.13
2023-03-13T10:18:59.635Z,6.53
2023-03-13T10:21:37.360Z,3.97
2023-03-13T10:24:33.715Z,4.03
2023-03-13T10:27:00.789Z,4.93
2023-03-13T10:29:30.964Z,4.57
2023-03-13T10:32:02.059Z,5.03
2023-03-13T10:34:53.272Z,4.47
2023-03-13T10:37:32.529Z,5.00
2023-03-13T10:40:31.989Z,5.23
2023-03-13T10:43:34.331Z,4.17
2023-03-13T10:46:03.855Z,4.70
2023-03-13T10:48:36.950Z,3.97
2023-03-13T10:51:03.774Z,4.50
2023-03-13T10:53:30.586Z,4.23
2023-03-13T10:56:16.274Z,5.23
2023-03-13T10:58:49.469Z,5.80
2023-03-13T11:01:24.664Z,6.30
2023-03-13T11:03:54.117Z,3.70
2023-03-13T11:06:27.253Z,5.43
2023-03-13T11:09:12.051Z,4.33
2023-03-13T11:12:10.994Z,4.10
2023-03-13T11:14:38.657Z,2.63
2023-03-13T11:17:19.414Z,6.60
2023-03-13T11:20:06.179Z,4.10
2023-03-13T11:23:01.419Z,7.07
2023-03-13T11:25:35.736Z,6.23
2023-03-13T11:28:17.387Z,4.13
2023-03-13T11:30:59.330Z,5.00
2023-03-13T11:33:41.163Z,4.93
2023-03-13T11:36:33.158Z,3.00
2023-03-13T11:39:26.194Z,2.83
2023-03-13T11:42:02.413Z,2.97
2023-03-13T11:44:41.241Z,4.13
2023-03-13T11:47:38.106Z,4.73
2023-03-13T11:50:26.694Z,3.10
2023-03-13T11:53:16.226Z,5.07
2023-03-13T11:56:05.047Z,3.83
2023-03-13T11:58:37.963Z,3.30
2023-03-13T12:01:12.291Z,2.47
2023-03-13T12:04:08.658Z,2.97
2023-03-13T12:06:42.228Z,2.13
2023-03-13T12:09:19.848Z,5.70
2023-03-13T12:12:05.103Z,4.37
2023-03-13T12:14:40.793Z,3.73
2023-03-13T12:17:37.385Z,2.27
2023-03-13T12:20:25.352Z,3.67
2023-03-13T12:23:28.830Z,1.40
2023-03-13T12:26:02.518Z,2.57
2023-03-13T12:28:50.870Z,7.30
2023-03-13T12:31:29.488Z,2.33
2023-03-13T12:34:13.275Z,3.23
2023-03-13T12:36:46.228Z,2.57
2023-03-13T12:39:54.030Z,2.13
2023-03-13T12:42:36.421Z,1.30
2023-03-13T12:45:05.340Z,2.93
2023-03-13T12:47:34.291Z,5.83
2023-03-13T12:50:10.205Z,1.60
2023-03-13T12:52:55.503Z,1.73
2023-03-13T12:55:35.805Z,0.90
2023-03-13T12:58:17.432Z,1.50
2023-03-13T13:00:46.439Z,1.57
2023-03-13T13:03:33.714Z,1.50
2023-03-13T13:06:29.721Z,4.20
2023-03-13T13:09:15.798Z,1.67
2023-03-13T13:11:47.497Z,2.87
2023-03-13T13:14:17.164Z,0.80
2023-03-13T13:16:52.923Z,1.13
2023-03-13T13:19:25.963Z,2.43
2023-03-13T13:22:30.810Z,1.85
2023-03-13T13:25:01.523Z,1.50
2023-03-13T13:27:37.622Z,1.10
2023-03-13T13:30:19.597Z,3.97
2023-03-13T13:32:52.295Z,1.37
2023-03-13T13:35:25.224Z,0.83
2023-03-13T13:37:52.854Z,1.30
2023-03-13T13:40:24.327Z,5.82
2023-03-13T13:42:56.029Z,3.80
2023-03-13T13:45:26.030Z,3.17
2023-03-13T13:48:34.254Z,2.20
2023-03-13T13:51:28.602Z,1.70
2023-03-13T13:54:19.814Z,1.67
2023-03-13T13:56:58.411Z,1.27
2023-03-13T13:59:47.118Z,3.17
2023-03-13T14:02:26.638Z,4.22
2023-03-13T14:05:01.640Z,0.70
2023-03-13T14:07:40.550Z,1.57
2023-03-13T14:10:42.760Z,2.87
2023-03-13T14:13:21.064Z,5.43
2023-03-13T14:15:53.265Z,2.50
2023-03-13T14:18:31.077Z,5.40
2023-03-13T14:21:14.187Z,1.33
2023-03-13T14:23:46.471Z,1.23
2023-03-13T14:26:28.091Z,0.63
2023-03-13T14:29:02.780Z,2.20
2023-03-13T14:31:35.897Z,2.00
2023-03-13T14:34:13.511Z,2.40
2023-03-13T14:37:29.582Z,1.50
2023-03-13T14:40:05.252Z,1.43
2023-03-13T14:42:51.776Z,0.90
2023-03-13T14:45:33.611Z,0.80
2023-03-13T14:48:13.949Z,3.70
2023-03-13T14:50:41.129Z,1.30
2023-03-13T14:53:19.474Z,1.27
2023-03-13T14:55:47.313Z,2.77
2023-03-13T14:58:20.866Z,1.17
2023-03-13T15:00:49.685Z,1.73
2023-03-13T15:03:21.518Z,4.07
2023-03-13T15:05:50.156Z,1.80
2023-03-13T15:08:24.927Z,5.57
2023-03-13T15:10:52.432Z,3.40
2023-03-13T15:13:36.221Z,2.17
2023-03-13T15:16:14.353Z,2.63
2023-03-13T15:18:41.442Z,1.53
2023-03-13T15:21:14.073Z,2.63
2023-03-13T15:23:42.590Z,1.73
2023-03-13T15:26:10.348Z,1.70
2023-03-13T15:28:37.077Z,2.70
2023-03-13T15:31:04.694Z,1.47
2023-03-13T15:33:31.804Z,3.10
2023-03-13T15:35:58.630Z,8.00
2023-03-13T15:38:27.860Z,2.03
2023-03-13T15:40:55.127Z,4.10
2023-03-13T15:43:22.950Z,1.93
2023-03-13T15:45:52.068Z,2.07
2023-03-13T15:48:22.311Z,1.10
2023-03-13T15:50:53.659Z,3.30
2023-03-13T15:53:26.181Z,4.37
2023-03-13T15:55:55.111Z,11.30
2023-03-13T15:58:22.722Z,2.17
2023-03-13T16:00:49.611Z,1.43
2023-03-13T16:03:20.655Z,1.43
2023-03-13T16:05:48.277Z,3.63
2023-03-13T16:08:34.268Z,5.03
2023-03-13T16:11:02.829Z,4.33
2023-03-13T16:13:29.777Z,2.50
2023-03-13T16:15:56.797Z,4.40
2023-03-13T16:18:25.758Z,1.87
2023-03-13T16:20:53.674Z,2.67
2023-03-13T16:23:21.048Z,2.20
2023-03-13T16:25:49.063Z,0.93
2023-03-13T16:28:16.448Z,2.97
2023-03-13T16:30:47.948Z,1.60
2023-03-13T16:33:15.216Z,1.27
2023-03-13T16:35:42.092Z,2.50
2023-03-13T16:38:11.829Z,2.30
2023-03-13T16:40:38.799Z,4.00
2023-03-13T16:43:05.770Z,0.83
2023-03-13T16:45:32.605Z,3.13
2023-03-13T16:47:59.842Z,1.80
2023-03-13T16:50:36.056Z,1.33
2023-03-13T16:53:03.637Z,3.23
2023-03-13T16:55:36.786Z,1.67
2023-03-13T16:58:04.183Z,1.70
2023-03-13T17:00:32.760Z,2.60
2023-03-13T17:03:01.660Z,3.73
2023-03-13T17:05:28.739Z,1.53
2023-03-13T17:07:55.517Z,2.77
2023-03-13T17:10:29.370Z,2.20
2023-03-13T17:12:56.453Z,2.20
2023-03-13T17:15:24.968Z,2.13
2023-03-13T17:17:54.107Z,2.07
2023-03-13T17:20:24.197Z,2.43
2023-03-13T17:22:50.966Z,2.03
2023-03-13T17:25:18.447Z,2.37
2023-03-13T17:27:47.526Z,2.70
2023-03-13T17:30:22.816Z,4.57
2023-03-13T17:32:50.584Z,3.23
2023-03-13T17:35:18.685Z,3.00
2023-03-13T17:37:46.141Z,5.13
2023-03-13T17:40:27.113Z,8.60
2023-03-13T17:42:56.751Z,4.00
2023-03-13T17:45:24.845Z,2.17
2023-03-13T17:47:51.995Z,3.97
2023-03-13T17:50:22.026Z,5.40
2023-03-13T17:52:48.914Z,2.00
2023-03-13T17:55:16.055Z,5.80
2023-03-13T17:57:44.310Z,2.83
2023-03-13T18:00:24.227Z,3.70
2023-03-13T18:02:51.398Z,1.83
2023-03-13T18:05:18.690Z,4.80
2023-03-13T18:07:45.890Z,2.77
2023-03-13T18:10:24.043Z,2.90
2023-03-13T18:12:51.859Z,2.80
2023-03-13T18:15:23.940Z,3.57
2023-03-13T18:17:51.684Z,5.63
2023-03-13T18:20:20.426Z,4.03
2023-03-13T18:22:47.961Z,3.50
2023-03-13T18:25:15.115Z,2.40
2023-03-13T18:27:41.946Z,4.50
2023-03-13T18:30:17.147Z,2.73
2023-03-13T18:32:44.685Z,5.60
2023-03-13T18:35:13.630Z,5.63
2023-03-13T18:37:42.022Z,6.67
2023-03-13T18:40:19.706Z,5.77
2023-03-13T18:42:47.211Z,6.10
2023-03-13T18:45:16.517Z,3.37
2023-03-13T18:47:43.822Z,2.63
2023-03-13T18:50:29.972Z,5.30
2023-03-13T18:52:58.560Z,3.13
2023-03-13T18:55:29.600Z,4.13
2023-03-13T18:57:56.971Z,3.67
2023-03-13T19:00:33.697Z,3.03
2023-03-13T19:03:00.677Z,2.23
2023-03-13T19:05:27.636Z,2.13
2023-03-13T19:07:54.650Z,4.60
2023-03-13T19:10:24.420Z,4.77
2023-03-13T19:12:52.028Z,4.70
2023-03-13T19:15:19.609Z,4.23
2023-03-13T19:17:46.439Z,3.17
2023-03-13T19:20:22.234Z,4.13
2023-03-13T19:22:49.356Z,3.93
2023-03-13T19:25:17.397Z,4.50
2023-03-13T19:27:45.321Z,3.57
2023-03-13T19:30:17.209Z,4.63
2023-03-13T19:32:44.502Z,2.70
2023-03-13T19:35:19.224Z,4.77
2023-03-13T19:37:46.535Z,5.47
2023-03-13T19:40:26.859Z,2.00
2023-03-13T19:42:53.713Z,5.03
2023-03-13T19:45:22.079Z,2.70
2023-03-13T19:47:49.944Z,5.40
2023-03-13T19:50:23.768Z,2.90
2023-03-13T19:52:50.860Z,5.00
2023-03-13T19:55:17.809Z,1.87
2023-03-13T19:57:44.668Z,2.20
2023-03-13T20:00:24.497Z,3.83
2023-03-13T20:02:57.719Z,2.83
2023-03-13T20:05:27.467Z,3.97
2023-03-13T20:07:54.635Z,4.73
2023-03-13T20:10:22.474Z,3.80
2023-03-13T20:12:50.088Z,3.63
2023-03-13T20:15:17.469Z,2.80
2023-03-13T20:17:44.353Z,3.10
2023-03-13T20:20:13.995Z,6.03
2023-03-13T20:22:41.033Z,5.43
2023-03-13T20:25:08.718Z,3.47
2023-03-13T20:27:35.814Z,3.10
2023-03-13T20:30:03.264Z,3.03
2023-03-13T20:32:30.238Z,2.00
2023-03-13T20:34:57.335Z,4.07
2023-03-13T20:37:24.198Z,3.60
2023-03-13T20:39:51.351Z,3.63
2023-03-13T20:42:18.976Z,3.33
2023-03-13T20:44:45.835Z,3.17
2023-03-13T20:47:12.694Z,3.63
2023-03-13T20:49:41.640Z,5.30
2023-03-13T20:52:08.670Z,4.57
2023-03-13T20:54:36.046Z,6.60
2023-03-13T20:57:03.112Z,6.67
2023-03-13T20:59:30.114Z,2.90
2023-03-13T21:01:57.168Z,4.00
2023-03-13T21:04:24.387Z,4.37
2023-03-13T21:06:51.441Z,4.07
2023-03-13T21:09:18.307Z,4.33
2023-03-13T21:11:45.374Z,7.33
2023-03-13T21:14:12.461Z,8.57
2023-03-13T21:16:39.399Z,6.17
2023-03-13T21:19:06.309Z,3.93
2023-03-13T21:21:33.305Z,4.30
2023-03-13T21:24:00.343Z,3.43
2023-03-13T21:26:27.318Z,4.50
2023-03-13T21:28:54.237Z,4.87
2023-03-13T21:31:21.128Z,4.90
2023-03-13T21:33:48.724Z,3.97
2023-03-13T21:36:17.949Z,3.50
2023-03-13T21:38:45.410Z,5.80
2023-03-13T21:41:15.688Z,4.43
2023-03-13T21:43:43.065Z,3.40
2023-03-13T21:46:11.763Z,3.97
2023-03-13T21:48:40.714Z,4.27
2023-03-13T21:51:08.082Z,4.97
2023-03-13T21:53:35.372Z,3.93
2023-03-13T21:56:03.181Z,2.23
2023-03-13T21:58:29.953Z,5.83
2023-03-13T22:00:57.761Z,5.83
2023-03-13T22:03:26.672Z,3.70
2023-03-13T22:05:54.044Z,3.47
2023-03-13T22:08:24.018Z,4.73
2023-03-13T22:10:55.107Z,4.33
2023-03-13T22:13:22.137Z,6.73
2023-03-13T22:15:50.474Z,4.27
2023-03-13T22:18:17.584Z,6.00
2023-03-13T22:20:44.476Z,4.70
2023-03-13T22:23:12.684Z,4.50
2023-03-13T22:25:41.511Z,4.70
2023-03-13T22:28:11.113Z,5.33
2023-03-13T22:30:39.165Z,7.50
2023-03-13T22:33:06.996Z,5.03
2023-03-13T22:35:35.356Z,4.07
2023-03-13T22:38:02.431Z,4.47
2023-03-13T22:40:29.696Z,3.60
2023-03-13T22:42:56.586Z,4.47
2023-03-13T22:45:23.768Z,3.43
2023-03-13T22:47:50.836Z,5.20
2023-03-13T22:50:21.066Z,4.97
2023-03-13T22:52:48.145Z,3.20
2023-03-13T22:55:14.934Z,8.27
2023-03-13T22:57:41.964Z,5.03
2023-03-13T23:00:09.699Z,4.27
2023-03-13T23:02:36.857Z,3.80
2023-03-13T23:05:04.050Z,4.63
2023-03-13T23:07:31.468Z,2.13
2023-03-13T23:09:58.949Z,4.43
2023-03-13T23:12:26.621Z,4.80
2023-03-13T23:14:54.612Z,3.30
2023-03-13T23:17:21.481Z,5.70
2023-03-13T23:19:48.567Z,3.97
2023-03-13T23:22:18.195Z,5.47
2023-03-13T23:24:45.330Z,3.03
2023-03-13T23:27:12.610Z,3.50
2023-03-13T23:29:40.057Z,4.90
2023-03-13T23:32:07.245Z,4.47
2023-03-13T23:34:36.019Z,4.43
2023-03-13T23:37:02.831Z,6.17
2023-03-13T23:39:30.081Z,3.80
2023-03-13T23:41:56.975Z,3.47
2023-03-13T23:44:24.011Z,3.70
2023-03-13T23:46:51.118Z,6.27
2023-03-13T23:49:18.051Z,4.57
2023-03-13T23:51:44.850Z,4.43
2023-03-13T23:54:11.879Z,5.27
2023-03-13T23:56:38.623Z,3.87
2023-03-13T23:59:05.636Z,4.73
